Lake Country Regional Airport
KW63 : now visible

Airfield :











YOU CAN JOIN US ON...

 
LOGIN :

Register | Disclaimer

   EN    FR    IT 

 









Legend :    VFR   Marginal VFR   IFR   Intensive IFR   Very Intensive IFR
Visi :
Ceiling :
>= 8 km
>= 3000ft
5 to 8 km
1000 to 3000 ft
1500m to 5 km
500 to 1000 ft
800 to 1500m
200 to 500 ft
< 800m
< 200 ft
Symbols :   Thunderstorms  Fog  Heavy snow  Heavy precipitations  Wind > 20 kt






- Airport Elevation : 421 ft


KW63 - Lake Country Regional

CURRENT METAR :
  • 241415Z AUTO 34003KT 10SM CLR 17/10 A3014 RMK AO1

EXPIRED METARs :
  • 241355Z AUTO 35004KT 10SM CLR 16/10 A3013 RMK AO1
  • 241335Z AUTO 33005KT 10SM CLR 16/10 A3013 RMK AO1
  • 241315Z AUTO 33003KT 10SM CLR 15/12 A3012 RMK AO1
  • 241255Z AUTO 32004KT 10SM CLR 13/12 A3012 RMK AO1
  • 241235Z AUTO 32003KT 10SM CLR 12/12 A3012 RMK AO1
  • 241215Z AUTO 31003KT 10SM CLR 11/11 A3012 RMK AO1
  • 241155Z AUTO 31003KT 10SM CLR 10/10 A3011 RMK AO1
  • 241135Z AUTO 00000KT 10SM CLR 10/10 A3011 RMK AO1

TAF N/A



MET'MAP, your aeronautical weather chart ! - Copyright ORBIFLY December 2007 - Disclaimer

ORBIFLY MET'MAP TEAM :

Programming & Development : Alexandra Zaïnal
Concept & original design : Baudouin d'Aumeries
Assistance for programming : Marc-Olivier Méhu
Technical & hardware support : Manuel Goepfert

Contact : metmap@orbifly.com




SOURCES & CREDITS :

   NOAA       Earth
Advisory